createdAt,value
2023-04-17T00:01:47.796Z,8.40
2023-04-17T00:04:16.266Z,8.40
2023-04-17T00:06:44.619Z,8.40
2023-04-17T00:09:13.640Z,8.40
2023-04-17T00:11:42.205Z,8.40
2023-04-17T00:14:11.860Z,8.40
2023-04-17T00:16:39.961Z,8.40
2023-04-17T00:19:08.355Z,8.40
2023-04-17T00:21:36.806Z,8.40
2023-04-17T00:24:05.171Z,8.40
2023-04-17T00:26:34.636Z,8.40
2023-04-17T00:29:03.347Z,8.40
2023-04-17T00:31:33.209Z,8.40
2023-04-17T00:34:01.743Z,8.40
2023-04-17T00:36:31.644Z,8.40
2023-04-17T00:39:00.088Z,8.40
2023-04-17T00:41:28.605Z,8.40
2023-04-17T00:43:56.847Z,8.40
2023-04-17T00:46:25.397Z,8.40
2023-04-17T00:48:55.077Z,8.40
2023-04-17T00:51:23.518Z,8.40
2023-04-17T00:53:52.638Z,8.40
2023-04-17T00:56:21.284Z,8.40
2023-04-17T00:58:50.053Z,8.40
2023-04-17T01:01:18.963Z,8.40
2023-04-17T01:03:47.408Z,8.40
2023-04-17T01:06:17.264Z,8.50
2023-04-17T01:08:46.031Z,8.40
2023-04-17T01:11:14.311Z,8.40
2023-04-17T01:13:46.560Z,8.40
2023-04-17T01:16:15.089Z,8.50
2023-04-17T01:18:43.848Z,8.50
2023-04-17T01:21:12.163Z,8.50
2023-04-17T01:23:51.988Z,8.40
2023-04-17T01:26:24.155Z,8.40
2023-04-17T01:28:53.768Z,8.30
2023-04-17T01:31:22.498Z,8.30
2023-04-17T01:33:51.277Z,8.30
2023-04-17T01:36:19.805Z,8.30
2023-04-17T01:38:48.371Z,8.30
2023-04-17T01:41:16.448Z,8.30
2023-04-17T01:43:47.286Z,8.20
2023-04-17T01:46:15.686Z,8.20
2023-04-17T01:48:43.744Z,8.20
2023-04-17T01:51:12.106Z,8.20
2023-04-17T01:53:40.450Z,8.10
2023-04-17T01:56:08.963Z,8.10
2023-04-17T01:58:37.400Z,8.10
2023-04-17T02:01:07.308Z,8.10
2023-04-17T02:03:35.555Z,8.10
2023-04-17T02:06:03.977Z,8.10
2023-04-17T02:08:31.989Z,8.10
2023-04-17T02:11:00.748Z,8.00
2023-04-17T02:13:29.094Z,8.00
2023-04-17T02:15:58.329Z,8.00
2023-04-17T02:18:31.589Z,8.00
2023-04-17T02:21:02.097Z,8.00
2023-04-17T02:23:30.361Z,8.00
2023-04-17T02:25:58.829Z,8.00
2023-04-17T02:28:26.833Z,8.00
2023-04-17T02:30:54.981Z,8.00
2023-04-17T02:33:23.679Z,8.00
2023-04-17T02:35:53.384Z,8.00
2023-04-17T02:38:30.459Z,7.90
2023-04-17T02:40:58.861Z,7.90
2023-04-17T02:43:29.169Z,7.90
2023-04-17T02:45:57.425Z,7.90
2023-04-17T02:48:27.227Z,8.00
2023-04-17T02:50:56.612Z,8.00
2023-04-17T02:53:24.946Z,7.90
2023-04-17T02:55:53.285Z,8.00
2023-04-17T02:58:24.284Z,7.90
2023-04-17T03:00:52.588Z,7.90
2023-04-17T03:03:21.228Z,7.90
2023-04-17T03:05:49.471Z,7.90
2023-04-17T03:08:19.166Z,7.80
2023-04-17T03:10:49.751Z,7.80
2023-04-17T03:13:18.079Z,7.80
2023-04-17T03:15:47.403Z,7.90
2023-04-17T03:18:16.128Z,7.90
2023-04-17T03:20:44.227Z,7.80
2023-04-17T03:23:12.534Z,7.80
2023-04-17T03:25:42.377Z,7.80
2023-04-17T03:28:11.121Z,7.80
2023-04-17T03:30:40.140Z,7.80
2023-04-17T03:33:09.764Z,7.80
2023-04-17T03:35:38.104Z,7.80
2023-04-17T03:38:09.089Z,7.80
2023-04-17T03:40:37.532Z,7.80
2023-04-17T03:43:07.065Z,7.80
2023-04-17T03:45:35.181Z,7.80
2023-04-17T03:48:03.850Z,7.80
2023-04-17T03:50:33.927Z,7.80
2023-04-17T03:53:02.442Z,7.70
2023-04-17T03:55:32.146Z,7.70
2023-04-17T03:58:01.251Z,7.70
2023-04-17T04:00:32.999Z,7.70
2023-04-17T04:03:07.746Z,7.60
2023-04-17T04:05:40.542Z,7.60
2023-04-17T04:08:10.489Z,7.60
2023-04-17T04:10:51.628Z,7.60
2023-04-17T04:13:26.057Z,7.70
2023-04-17T04:16:00.177Z,7.70
2023-04-17T04:18:30.614Z,7.70
2023-04-17T04:21:00.058Z,7.70
2023-04-17T04:23:33.760Z,7.80
2023-04-17T04:26:03.092Z,7.70
2023-04-17T04:28:40.540Z,7.80
2023-04-17T04:31:19.325Z,7.70
2023-04-17T04:33:48.202Z,7.70
2023-04-17T04:36:21.443Z,7.70
2023-04-17T04:38:59.781Z,7.70
2023-04-17T04:41:34.857Z,7.70
2023-04-17T04:44:06.316Z,7.80
2023-04-17T04:46:38.932Z,7.80
2023-04-17T04:49:06.999Z,7.80
2023-04-17T04:51:36.802Z,7.80
2023-04-17T04:54:08.182Z,7.80
2023-04-17T04:56:45.040Z,7.80
2023-04-17T04:59:15.289Z,7.80
2023-04-17T05:01:50.752Z,7.80
2023-04-17T05:04:21.765Z,7.70
2023-04-17T05:06:52.965Z,7.70
2023-04-17T05:09:22.222Z,7.70
2023-04-17T05:11:53.840Z,7.70
2023-04-17T05:14:22.994Z,7.70
2023-04-17T05:16:53.287Z,7.70
2023-04-17T05:19:22.545Z,7.70
2023-04-17T05:22:01.109Z,7.70
2023-04-17T05:24:32.616Z,7.70
2023-04-17T05:27:02.194Z,7.70
2023-04-17T05:29:31.183Z,7.80
2023-04-17T05:32:01.332Z,7.70
2023-04-17T05:34:46.977Z,7.80
2023-04-17T05:37:15.971Z,7.80
2023-04-17T05:39:44.415Z,7.80
2023-04-17T05:42:12.409Z,7.70
2023-04-17T05:44:41.589Z,7.70
2023-04-17T05:47:11.004Z,7.70
2023-04-17T05:49:39.828Z,7.70
2023-04-17T05:52:07.923Z,7.70
2023-04-17T05:54:40.704Z,7.70
2023-04-17T05:57:09.882Z,7.60
2023-04-17T05:59:38.842Z,7.70
2023-04-17T06:02:09.448Z,7.70
2023-04-17T06:04:39.643Z,7.70
2023-04-17T06:07:09.807Z,7.70
2023-04-17T06:09:38.566Z,7.70
2023-04-17T06:12:07.166Z,7.70
2023-04-17T06:14:36.144Z,7.70
2023-04-17T06:17:08.210Z,7.70
2023-04-17T06:19:36.706Z,7.70
2023-04-17T06:22:06.519Z,7.70
2023-04-17T06:24:34.528Z,7.60
2023-04-17T06:27:03.804Z,7.60
2023-04-17T06:29:31.946Z,7.70
2023-04-17T06:32:00.519Z,7.70
2023-04-17T06:34:28.692Z,7.70
2023-04-17T06:36:57.586Z,7.80
2023-04-17T06:39:27.443Z,7.80
2023-04-17T06:41:56.243Z,7.80
2023-04-17T06:44:28.378Z,7.90
2023-04-17T06:46:59.455Z,8.00
2023-04-17T06:49:28.474Z,8.00
2023-04-17T06:51:56.487Z,8.00
2023-04-17T06:54:24.440Z,8.00
2023-04-17T06:56:54.243Z,8.10
2023-04-17T06:59:22.209Z,8.10
2023-04-17T07:01:50.853Z,8.10
2023-04-17T07:04:20.857Z,8.20
2023-04-17T07:06:49.392Z,8.20
2023-04-17T07:09:17.379Z,8.10
2023-04-17T07:11:45.759Z,8.20
2023-04-17T07:14:15.112Z,8.20
2023-04-17T07:16:43.640Z,8.30
2023-04-17T07:19:11.880Z,8.30
2023-04-17T07:21:40.433Z,8.40
2023-04-17T07:24:08.587Z,8.40
2023-04-17T07:26:37.704Z,8.50
2023-04-17T07:29:05.750Z,8.50
2023-04-17T07:31:36.109Z,8.50
2023-04-17T07:34:05.211Z,8.50
2023-04-17T07:36:33.899Z,8.60
2023-04-17T07:39:01.995Z,8.70
2023-04-17T07:41:30.558Z,8.70
2023-04-17T07:43:59.177Z,8.90
2023-04-17T07:46:28.169Z,9.10
2023-04-17T07:48:57.570Z,9.30
2023-04-17T07:51:26.521Z,9.30
2023-04-17T07:53:54.605Z,9.20
2023-04-17T07:56:22.688Z,9.20
2023-04-17T07:58:51.957Z,9.30
2023-04-17T08:01:21.303Z,9.30
2023-04-17T08:03:50.311Z,9.30
2023-04-17T08:06:20.130Z,9.40
2023-04-17T08:08:48.234Z,9.30
2023-04-17T08:11:16.951Z,9.50
2023-04-17T08:13:44.973Z,9.70
2023-04-17T08:16:14.285Z,9.70
2023-04-17T08:18:42.822Z,9.70
2023-04-17T08:21:11.854Z,9.60
2023-04-17T08:23:41.903Z,9.60
2023-04-17T08:26:10.705Z,9.80
2023-04-17T08:28:38.691Z,10.30
2023-04-17T08:31:08.954Z,10.50
2023-04-17T08:33:37.036Z,10.40
2023-04-17T08:36:07.974Z,10.30
2023-04-17T08:38:36.743Z,10.20
2023-04-17T08:41:09.831Z,10.10
2023-04-17T08:43:37.956Z,10.20
2023-04-17T08:46:07.169Z,10.30
2023-04-17T08:48:35.308Z,10.40
2023-04-17T08:51:03.908Z,10.60
2023-04-17T08:53:32.554Z,10.70
2023-04-17T08:56:06.902Z,10.90
2023-04-17T08:58:37.877Z,11.20
2023-04-17T09:01:10.820Z,11.40
2023-04-17T09:03:43.176Z,11.40
2023-04-17T09:06:12.157Z,11.30
2023-04-17T09:08:40.775Z,11.40
2023-04-17T09:11:18.123Z,11.50
2023-04-17T09:13:47.561Z,11.50
2023-04-17T09:16:17.090Z,11.50
2023-04-17T09:18:46.176Z,11.50
2023-04-17T09:21:15.664Z,11.20
2023-04-17T09:23:48.292Z,11.30
2023-04-17T09:26:17.647Z,11.30
2023-04-17T09:29:00.517Z,11.30
2023-04-17T09:31:31.660Z,11.50
2023-04-17T09:34:00.433Z,11.40
2023-04-17T09:36:30.941Z,11.40
2023-04-17T09:39:00.976Z,11.40
2023-04-17T09:41:30.794Z,11.60
2023-04-17T09:44:01.937Z,11.90
2023-04-17T09:46:36.074Z,12.10
2023-04-17T09:49:08.697Z,12.00
2023-04-17T09:51:37.414Z,12.50
2023-04-17T09:54:06.877Z,12.70
2023-04-17T09:56:36.188Z,12.80
2023-04-17T09:59:05.320Z,13.20
2023-04-17T10:01:36.410Z,13.50
2023-04-17T10:04:05.343Z,13.20
2023-04-17T10:06:34.934Z,13.20
2023-04-17T10:09:04.328Z,13.10
2023-04-17T10:11:36.813Z,12.80
2023-04-17T10:14:09.723Z,12.70
2023-04-17T10:16:41.174Z,12.80
2023-04-17T10:19:28.028Z,13.20
2023-04-17T10:22:14.969Z,13.50
2023-04-17T10:24:43.591Z,13.00
2023-04-17T10:27:26.885Z,12.80
2023-04-17T10:29:55.935Z,12.80
2023-04-17T10:32:28.420Z,13.00
2023-04-17T10:34:58.457Z,13.10
2023-04-17T10:37:45.284Z,13.40
2023-04-17T10:40:20.998Z,13.50
2023-04-17T10:43:02.967Z,13.60
2023-04-17T10:45:47.127Z,13.60
2023-04-17T10:48:22.431Z,13.40
2023-04-17T10:50:51.142Z,13.30
2023-04-17T10:53:37.620Z,13.20
2023-04-17T10:56:06.296Z,13.40
2023-04-17T10:58:34.276Z,13.50
2023-04-17T11:01:03.984Z,13.90
2023-04-17T11:06:05.557Z,14.60
2023-04-17T11:08:33.910Z,14.70
2023-04-17T11:11:01.856Z,14.70
2023-04-17T11:13:33.789Z,14.40
2023-04-17T11:16:04.369Z,14.30
2023-04-17T11:18:34.191Z,14.00
2023-04-17T11:21:02.662Z,13.80
2023-04-17T11:23:33.505Z,13.80
2023-04-17T11:26:01.819Z,13.80
2023-04-17T11:28:30.290Z,13.80
2023-04-17T11:30:58.617Z,13.90
2023-04-17T11:33:27.277Z,14.10
2023-04-17T11:35:57.092Z,14.00
2023-04-17T11:38:25.631Z,14.40
2023-04-17T11:40:54.216Z,14.90
2023-04-17T11:43:23.050Z,15.10
2023-04-17T11:45:52.312Z,15.10
2023-04-17T11:48:23.179Z,14.70
2023-04-17T11:50:55.296Z,14.60
2023-04-17T11:53:25.698Z,14.40
2023-04-17T11:56:08.571Z,14.30
2023-04-17T11:58:45.726Z,14.60
2023-04-17T12:01:14.187Z,15.00
2023-04-17T12:03:44.811Z,15.50
2023-04-17T12:06:14.525Z,15.80
2023-04-17T12:08:45.366Z,15.40
2023-04-17T12:11:19.080Z,15.00
2023-04-17T12:13:47.949Z,15.20
2023-04-17T12:16:31.808Z,15.60
2023-04-17T12:19:00.135Z,16.30
2023-04-17T12:21:28.218Z,17.10
2023-04-17T12:23:56.942Z,17.30
2023-04-17T12:26:25.703Z,17.10
2023-04-17T12:28:53.764Z,16.70
2023-04-17T12:31:22.159Z,16.20
2023-04-17T12:33:52.557Z,16.00
2023-04-17T12:36:21.000Z,15.60
2023-04-17T12:38:49.005Z,15.20
2023-04-17T12:41:17.361Z,15.30
2023-04-17T12:43:45.788Z,15.20
2023-04-17T12:46:14.345Z,15.30
2023-04-17T12:48:44.768Z,15.50
2023-04-17T12:51:14.490Z,15.50
2023-04-17T12:53:42.845Z,15.70
2023-04-17T12:56:11.275Z,15.80
2023-04-17T12:58:39.318Z,15.60
2023-04-17T13:01:07.677Z,15.30
2023-04-17T13:03:36.367Z,14.60
2023-04-17T13:06:04.998Z,14.10
2023-04-17T13:08:34.386Z,13.80
2023-04-17T13:11:03.856Z,13.80
2023-04-17T13:13:32.302Z,13.70
2023-04-17T13:16:00.933Z,13.50
2023-04-17T13:18:29.195Z,13.30
2023-04-17T13:20:57.855Z,13.30
2023-04-17T13:23:25.843Z,13.10
2023-04-17T13:25:55.644Z,13.10
2023-04-17T13:28:23.645Z,13.10
2023-04-17T13:30:53.016Z,13.10
2023-04-17T13:33:21.227Z,13.40
2023-04-17T13:35:50.944Z,13.50
2023-04-17T13:38:18.879Z,13.30
2023-04-17T13:40:47.341Z,13.10
2023-04-17T13:43:16.675Z,13.10
2023-04-17T13:45:45.128Z,13.20
2023-04-17T13:48:13.236Z,13.40
2023-04-17T13:50:41.555Z,13.60
2023-04-17T13:53:11.096Z,14.40
2023-04-17T13:55:39.544Z,14.90
2023-04-17T13:58:07.491Z,15.50
2023-04-17T14:00:36.880Z,16.00
2023-04-17T14:03:05.461Z,16.40
2023-04-17T14:05:34.007Z,16.70
2023-04-17T14:08:02.009Z,16.60
2023-04-17T14:10:30.592Z,15.70
2023-04-17T14:12:58.591Z,14.90
2023-04-17T14:15:26.941Z,14.40
2023-04-17T14:17:57.719Z,14.20
2023-04-17T14:20:26.159Z,14.10
2023-04-17T14:22:54.566Z,13.90
2023-04-17T14:25:22.517Z,13.60
2023-04-17T14:27:52.053Z,13.40
2023-04-17T14:30:20.464Z,13.30
2023-04-17T14:32:49.419Z,13.20
2023-04-17T14:35:18.886Z,12.90
2023-04-17T14:37:47.144Z,12.80
2023-04-17T14:40:15.223Z,12.90
2023-04-17T14:42:53.534Z,12.90
2023-04-17T14:45:22.352Z,13.10
2023-04-17T14:47:51.041Z,13.40
2023-04-17T14:50:20.540Z,13.70
2023-04-17T14:52:48.883Z,14.10
2023-04-17T14:55:17.117Z,13.70
2023-04-17T14:57:45.448Z,13.60
2023-04-17T15:00:13.984Z,13.70
2023-04-17T15:02:42.411Z,13.90
2023-04-17T15:05:11.037Z,14.20
2023-04-17T15:07:40.665Z,14.10
2023-04-17T15:10:08.950Z,13.90
2023-04-17T15:12:37.433Z,13.80
2023-04-17T15:15:06.443Z,13.60
2023-04-17T15:17:35.733Z,13.70
2023-04-17T15:20:04.607Z,13.40
2023-04-17T15:22:32.634Z,13.30
2023-04-17T15:25:02.400Z,13.20
2023-04-17T15:27:30.773Z,13.30
2023-04-17T15:29:59.236Z,13.40
2023-04-17T15:32:27.752Z,13.30
2023-04-17T15:34:55.749Z,13.00
2023-04-17T15:37:24.254Z,12.60
2023-04-17T15:39:52.188Z,12.30
2023-04-17T15:42:22.670Z,12.30
2023-04-17T15:44:51.105Z,12.30
2023-04-17T15:47:19.076Z,12.00
2023-04-17T15:49:48.261Z,11.90
2023-04-17T15:52:16.581Z,11.80
2023-04-17T15:54:44.564Z,11.70
2023-04-17T15:57:12.806Z,11.60
2023-04-17T15:59:42.249Z,11.70
2023-04-17T16:02:12.119Z,11.60
2023-04-17T16:04:43.721Z,11.60
2023-04-17T16:07:14.107Z,11.60
2023-04-17T16:09:44.472Z,11.50
2023-04-17T16:12:13.437Z,11.50
2023-04-17T16:14:42.869Z,11.40
2023-04-17T16:17:10.836Z,11.50
2023-04-17T16:19:39.263Z,11.50
2023-04-17T16:22:07.590Z,11.50
2023-04-17T16:24:35.908Z,11.50
2023-04-17T16:27:04.185Z,11.60
2023-04-17T16:29:32.557Z,11.60
2023-04-17T16:32:02.466Z,11.50
2023-04-17T16:34:30.984Z,11.60
2023-04-17T16:36:59.000Z,11.50
2023-04-17T16:39:27.440Z,11.50
2023-04-17T16:41:56.252Z,11.30
2023-04-17T16:44:25.946Z,11.20
2023-04-17T16:47:10.049Z,11.20
2023-04-17T16:49:43.474Z,11.10
2023-04-17T16:52:11.904Z,11.00
2023-04-17T16:54:39.919Z,10.90
2023-04-17T16:57:07.882Z,10.80
2023-04-17T16:59:36.170Z,10.80
2023-04-17T17:02:04.574Z,10.70
2023-04-17T17:04:32.947Z,10.50
2023-04-17T17:07:02.328Z,10.50
2023-04-17T17:09:30.798Z,10.40
2023-04-17T17:11:59.180Z,10.30
2023-04-17T17:14:27.571Z,10.20
2023-04-17T17:16:55.939Z,10.10
2023-04-17T17:19:24.531Z,10.00
2023-04-17T17:21:52.505Z,10.00
2023-04-17T17:24:22.083Z,10.10
2023-04-17T17:26:50.576Z,10.00
2023-04-17T17:29:18.874Z,10.00
2023-04-17T17:31:47.064Z,10.00
2023-04-17T17:34:26.190Z,9.90
2023-04-17T17:36:55.305Z,9.90
2023-04-17T17:39:26.362Z,9.80
2023-04-17T17:41:55.856Z,9.70
2023-04-17T17:44:24.221Z,9.60
2023-04-17T17:46:52.201Z,9.60
2023-04-17T17:49:20.485Z,9.60
2023-04-17T17:51:48.496Z,9.60
2023-04-17T17:54:16.823Z,9.50
2023-04-17T17:56:46.203Z,9.50
2023-04-17T17:59:14.468Z,9.40
2023-04-17T18:01:42.502Z,9.40
2023-04-17T18:04:11.065Z,9.30
2023-04-17T18:06:40.979Z,9.30
2023-04-17T18:09:09.516Z,9.30
2023-04-17T18:11:37.929Z,9.30
2023-04-17T18:14:07.963Z,9.30
2023-04-17T18:16:37.219Z,9.30
2023-04-17T18:19:05.628Z,9.20
2023-04-17T18:21:33.868Z,9.30
2023-04-17T18:24:02.816Z,9.20
2023-04-17T18:26:31.265Z,9.10
2023-04-17T18:28:59.249Z,9.10
2023-04-17T18:31:28.971Z,9.10
2023-04-17T18:34:02.066Z,9.10
2023-04-17T18:36:30.842Z,9.10
2023-04-17T18:38:59.242Z,9.00
2023-04-17T18:41:27.585Z,9.00
2023-04-17T18:43:56.118Z,9.00
2023-04-17T18:46:27.029Z,9.00
2023-04-17T18:48:56.883Z,9.00
2023-04-17T18:51:25.241Z,9.00
2023-04-17T18:53:53.544Z,9.00
2023-04-17T18:56:22.585Z,8.90
2023-04-17T18:58:51.121Z,8.90
2023-04-17T19:01:19.590Z,8.90
2023-04-17T19:03:47.775Z,8.90
2023-04-17T19:06:17.430Z,8.90
2023-04-17T19:08:45.451Z,8.90
2023-04-17T19:11:13.912Z,8.80
2023-04-17T19:13:42.407Z,8.80
2023-04-17T19:16:11.387Z,8.80
2023-04-17T19:18:39.446Z,8.70
2023-04-17T19:21:07.883Z,8.60
2023-04-17T19:23:38.636Z,8.60
2023-04-17T19:26:07.132Z,8.50
2023-04-17T19:28:35.458Z,8.50
2023-04-17T19:31:03.612Z,8.50
2023-04-17T19:33:33.014Z,8.50
2023-04-17T19:36:02.969Z,8.50
2023-04-17T19:38:31.230Z,8.40
2023-04-17T19:41:23.620Z,8.40
2023-04-17T19:43:54.173Z,8.30
2023-04-17T19:46:23.330Z,8.20
2023-04-17T19:48:52.382Z,8.10
2023-04-17T19:51:20.882Z,8.00
2023-04-17T19:53:48.950Z,7.90
2023-04-17T19:56:17.261Z,7.80
2023-04-17T19:58:45.303Z,7.70
2023-04-17T20:01:15.665Z,7.60
2023-04-17T20:03:45.399Z,7.50
2023-04-17T20:06:14.031Z,7.40
2023-04-17T20:08:42.114Z,7.30
2023-04-17T20:11:12.115Z,7.30
2023-04-17T20:13:40.416Z,7.40
2023-04-17T20:16:08.796Z,7.50
2023-04-17T20:18:38.254Z,7.60
2023-04-17T20:21:07.189Z,7.70
2023-04-17T20:23:35.325Z,7.70
2023-04-17T20:26:04.219Z,7.70
2023-04-17T20:28:32.269Z,7.70
2023-04-17T20:31:00.889Z,7.80
2023-04-17T20:33:29.019Z,7.80
2023-04-17T20:35:58.826Z,7.80
2023-04-17T20:38:27.174Z,7.90
2023-04-17T20:40:55.481Z,7.90
2023-04-17T20:43:23.835Z,7.90
2023-04-17T20:45:51.837Z,7.90
2023-04-17T20:48:20.538Z,7.80
2023-04-17T20:50:48.999Z,7.80
2023-04-17T20:53:18.767Z,7.80
2023-04-17T20:55:47.531Z,7.80
2023-04-17T20:58:15.632Z,7.80
2023-04-17T21:00:57.868Z,7.90
2023-04-17T21:03:31.249Z,7.90
2023-04-17T21:06:00.000Z,7.80
2023-04-17T21:08:29.828Z,7.80
2023-04-17T21:10:57.976Z,7.80
2023-04-17T21:13:26.446Z,7.80
2023-04-17T21:15:54.835Z,7.90
2023-04-17T21:18:23.001Z,7.80
2023-04-17T21:20:50.977Z,7.80
2023-04-17T21:23:19.298Z,7.80
2023-04-17T21:25:51.744Z,7.80
2023-04-17T21:28:20.291Z,7.80
2023-04-17T21:30:48.345Z,7.80
2023-04-17T21:33:16.799Z,7.80
2023-04-17T21:35:45.718Z,7.80
2023-04-17T21:38:14.118Z,7.90
2023-04-17T21:40:51.169Z,7.90
2023-04-17T21:43:21.368Z,7.90
2023-04-17T21:45:49.978Z,7.90
2023-04-17T21:48:18.589Z,7.90
2023-04-17T21:50:46.534Z,7.80
2023-04-17T21:53:14.965Z,7.90
2023-04-17T21:55:43.280Z,7.80
2023-04-17T21:58:11.350Z,7.80
2023-04-17T22:00:40.749Z,7.70
2023-04-17T22:03:09.173Z,7.70
2023-04-17T22:05:37.242Z,7.80
2023-04-17T22:08:06.218Z,7.70
2023-04-17T22:10:34.189Z,7.80
2023-04-17T22:13:02.612Z,7.80
2023-04-17T22:15:30.851Z,7.80
2023-04-17T22:18:01.121Z,7.80
2023-04-17T22:20:29.298Z,7.80
2023-04-17T22:22:57.643Z,7.80
2023-04-17T22:25:25.993Z,7.80
2023-04-17T22:27:54.348Z,7.80
2023-04-17T22:30:22.431Z,7.70
2023-04-17T22:32:51.273Z,7.70
2023-04-17T22:35:21.117Z,7.80
2023-04-17T22:37:49.536Z,7.80
2023-04-17T22:40:18.023Z,7.70
2023-04-17T22:42:46.392Z,7.70
2023-04-17T22:45:14.677Z,7.70
2023-04-17T22:47:42.955Z,7.70
2023-04-17T22:50:11.746Z,7.70
2023-04-17T22:52:41.538Z,7.60
2023-04-17T22:55:10.022Z,7.50
2023-04-17T22:57:38.337Z,7.40
2023-04-17T23:00:08.743Z,7.40
2023-04-17T23:02:37.373Z,7.40
2023-04-17T23:05:06.476Z,7.40
2023-04-17T23:07:34.788Z,7.40
2023-04-17T23:10:04.394Z,7.50
2023-04-17T23:12:32.515Z,7.50
2023-04-17T23:15:00.851Z,7.40
2023-04-17T23:17:29.041Z,7.40
2023-04-17T23:19:57.452Z,7.40
2023-04-17T23:22:25.445Z,7.50
2023-04-17T23:24:53.760Z,7.50
2023-04-17T23:27:23.342Z,7.50
2023-04-17T23:29:51.658Z,7.50
2023-04-17T23:32:19.695Z,7.50
2023-04-17T23:34:48.135Z,7.50
2023-04-17T23:37:16.237Z,7.50
2023-04-17T23:39:44.494Z,7.50
2023-04-17T23:42:12.432Z,7.50
2023-04-17T23:44:42.267Z,7.50
2023-04-17T23:47:11.191Z,7.50
2023-04-17T23:49:39.500Z,7.50
2023-04-17T23:52:07.492Z,7.50
2023-04-17T23:54:35.887Z,7.60
2023-04-17T23:57:04.493Z,7.60
2023-04-17T23:59:32.852Z,7.60
